sensor_id;sensor_type;location;lat;lon;timestamp;P1;durP1;ratioP1;P2;durP2;ratioP2
12474;SDS011;6302;42.624;23.334;2023-11-21T00:00:25;7.13;;;5.63;;
12474;SDS011;6302;42.624;23.334;2023-11-21T00:02:53;6.07;;;5.37;;
12474;SDS011;6302;42.624;23.334;2023-11-21T00:05:20;6.87;;;4.90;;
12474;SDS011;6302;42.624;23.334;2023-11-21T00:07:48;6.20;;;5.20;;
12474;SDS011;6302;42.624;23.334;2023-11-21T00:10:16;6.97;;;4.97;;
12474;SDS011;6302;42.624;23.334;2023-11-21T00:12:43;8.33;;;5.83;;
12474;SDS011;6302;42.624;23.334;2023-11-21T00:15:10;9.77;;;6.43;;
12474;SDS011;6302;42.624;23.334;2023-11-21T00:17:37;9.00;;;5.73;;
12474;SDS011;6302;42.624;23.334;2023-11-21T00:20:07;12.30;;;6.20;;
12474;SDS011;6302;42.624;23.334;2023-11-21T00:22:37;9.87;;;6.97;;
12474;SDS011;6302;42.624;23.334;2023-11-21T00:25:05;9.23;;;6.10;;
12474;SDS011;6302;42.624;23.334;2023-11-21T00:27:34;10.13;;;7.37;;
12474;SDS011;6302;42.624;23.334;2023-11-21T00:30:01;11.43;;;8.27;;
12474;SDS011;6302;42.624;23.334;2023-11-21T00:32:29;11.07;;;8.13;;
12474;SDS011;6302;42.624;23.334;2023-11-21T00:34:56;9.43;;;7.43;;
12474;SDS011;6302;42.624;23.334;2023-11-21T00:37:24;10.53;;;7.20;;
12474;SDS011;6302;42.624;23.334;2023-11-21T00:39:51;8.33;;;6.07;;
12474;SDS011;6302;42.624;23.334;2023-11-21T00:42:17;8.77;;;6.67;;
12474;SDS011;6302;42.624;23.334;2023-11-21T00:44:44;11.77;;;8.10;;
12474;SDS011;6302;42.624;23.334;2023-11-21T00:47:11;14.07;;;10.13;;
12474;SDS011;6302;42.624;23.334;2023-11-21T00:49:38;15.07;;;10.10;;
12474;SDS011;6302;42.624;23.334;2023-11-21T00:52:05;20.60;;;12.00;;
12474;SDS011;6302;42.624;23.334;2023-11-21T00:54:34;14.67;;;9.83;;
12474;SDS011;6302;42.624;23.334;2023-11-21T00:57:01;8.70;;;6.50;;
12474;SDS011;6302;42.624;23.334;2023-11-21T00:59:28;10.77;;;8.07;;
12474;SDS011;6302;42.624;23.334;2023-11-21T01:01:55;11.10;;;8.60;;
12474;SDS011;6302;42.624;23.334;2023-11-21T01:04:25;11.10;;;8.50;;
12474;SDS011;6302;42.624;23.334;2023-11-21T01:06:52;8.70;;;6.87;;
12474;SDS011;6302;42.624;23.334;2023-11-21T01:09:19;11.00;;;7.77;;
12474;SDS011;6302;42.624;23.334;2023-11-21T01:11:47;9.67;;;6.70;;
12474;SDS011;6302;42.624;23.334;2023-11-21T01:14:13;7.30;;;6.40;;
12474;SDS011;6302;42.624;23.334;2023-11-21T01:16:42;8.00;;;6.17;;
12474;SDS011;6302;42.624;23.334;2023-11-21T01:19:09;9.07;;;6.10;;
12474;SDS011;6302;42.624;23.334;2023-11-21T01:21:36;7.23;;;5.63;;
12474;SDS011;6302;42.624;23.334;2023-11-21T01:24:03;6.80;;;6.10;;
12474;SDS011;6302;42.624;23.334;2023-11-21T01:26:32;7.63;;;5.70;;
12474;SDS011;6302;42.624;23.334;2023-11-21T01:29:00;8.73;;;6.67;;
12474;SDS011;6302;42.624;23.334;2023-11-21T01:31:27;8.43;;;6.37;;
12474;SDS011;6302;42.624;23.334;2023-11-21T01:33:54;8.10;;;6.23;;
12474;SDS011;6302;42.624;23.334;2023-11-21T01:36:21;13.23;;;7.60;;
12474;SDS011;6302;42.624;23.334;2023-11-21T01:38:48;12.10;;;7.30;;
12474;SDS011;6302;42.624;23.334;2023-11-21T01:41:15;10.17;;;7.83;;
12474;SDS011;6302;42.624;23.334;2023-11-21T01:43:42;12.83;;;9.50;;
12474;SDS011;6302;42.624;23.334;2023-11-21T01:46:10;10.50;;;7.57;;
12474;SDS011;6302;42.624;23.334;2023-11-21T01:48:37;10.17;;;7.10;;
12474;SDS011;6302;42.624;23.334;2023-11-21T01:51:04;10.70;;;7.77;;
12474;SDS011;6302;42.624;23.334;2023-11-21T01:53:31;10.90;;;8.10;;
12474;SDS011;6302;42.624;23.334;2023-11-21T01:55:58;12.30;;;8.87;;
12474;SDS011;6302;42.624;23.334;2023-11-21T01:58:25;13.37;;;9.27;;
12474;SDS011;6302;42.624;23.334;2023-11-21T02:00:52;12.93;;;10.20;;
12474;SDS011;6302;42.624;23.334;2023-11-21T02:03:21;15.20;;;10.03;;
12474;SDS011;6302;42.624;23.334;2023-11-21T02:05:48;12.57;;;10.07;;
12474;SDS011;6302;42.624;23.334;2023-11-21T02:08:15;15.77;;;10.00;;
12474;SDS011;6302;42.624;23.334;2023-11-21T02:10:42;8.17;;;7.20;;
12474;SDS011;6302;42.624;23.334;2023-11-21T02:13:08;8.17;;;7.10;;
12474;SDS011;6302;42.624;23.334;2023-11-21T02:15:36;8.10;;;7.30;;
12474;SDS011;6302;42.624;23.334;2023-11-21T02:18:03;7.67;;;6.80;;
12474;SDS011;6302;42.624;23.334;2023-11-21T02:20:33;9.67;;;6.03;;
12474;SDS011;6302;42.624;23.334;2023-11-21T02:23:03;6.50;;;5.43;;
12474;SDS011;6302;42.624;23.334;2023-11-21T02:25:31;6.07;;;5.20;;
12474;SDS011;6302;42.624;23.334;2023-11-21T02:27:59;6.07;;;5.20;;
12474;SDS011;6302;42.624;23.334;2023-11-21T02:30:27;12.33;;;5.90;;
12474;SDS011;6302;42.624;23.334;2023-11-21T02:32:55;8.30;;;7.33;;
12474;SDS011;6302;42.624;23.334;2023-11-21T02:35:23;8.50;;;6.33;;
12474;SDS011;6302;42.624;23.334;2023-11-21T02:37:51;8.70;;;6.93;;
12474;SDS011;6302;42.624;23.334;2023-11-21T02:40:19;7.77;;;6.67;;
12474;SDS011;6302;42.624;23.334;2023-11-21T02:42:46;7.50;;;6.47;;
12474;SDS011;6302;42.624;23.334;2023-11-21T02:45:13;8.33;;;6.50;;
12474;SDS011;6302;42.624;23.334;2023-11-21T02:47:41;8.23;;;6.47;;
12474;SDS011;6302;42.624;23.334;2023-11-21T02:50:08;8.27;;;7.10;;
12474;SDS011;6302;42.624;23.334;2023-11-21T02:52:35;7.80;;;6.63;;
12474;SDS011;6302;42.624;23.334;2023-11-21T02:55:02;8.60;;;6.73;;
12474;SDS011;6302;42.624;23.334;2023-11-21T02:57:31;8.13;;;6.90;;
12474;SDS011;6302;42.624;23.334;2023-11-21T02:59:58;7.90;;;7.10;;
12474;SDS011;6302;42.624;23.334;2023-11-21T03:02:25;8.23;;;7.43;;
12474;SDS011;6302;42.624;23.334;2023-11-21T03:04:52;10.67;;;7.30;;
12474;SDS011;6302;42.624;23.334;2023-11-21T03:07:18;7.77;;;6.73;;
12474;SDS011;6302;42.624;23.334;2023-11-21T03:09:45;8.63;;;7.53;;
12474;SDS011;6302;42.624;23.334;2023-11-21T03:12:12;10.63;;;8.17;;
12474;SDS011;6302;42.624;23.334;2023-11-21T03:14:40;10.73;;;8.73;;
12474;SDS011;6302;42.624;23.334;2023-11-21T03:17:07;11.27;;;8.97;;
12474;SDS011;6302;42.624;23.334;2023-11-21T03:19:34;8.87;;;7.97;;
12474;SDS011;6302;42.624;23.334;2023-11-21T03:22:01;10.47;;;8.37;;
12474;SDS011;6302;42.624;23.334;2023-11-21T03:24:29;10.37;;;7.67;;
12474;SDS011;6302;42.624;23.334;2023-11-21T03:26:56;9.57;;;7.53;;
12474;SDS011;6302;42.624;23.334;2023-11-21T03:29:23;10.40;;;7.27;;
12474;SDS011;6302;42.624;23.334;2023-11-21T03:31:51;8.57;;;7.33;;
12474;SDS011;6302;42.624;23.334;2023-11-21T03:34:22;7.70;;;6.47;;
12474;SDS011;6302;42.624;23.334;2023-11-21T03:36:50;9.43;;;6.70;;
12474;SDS011;6302;42.624;23.334;2023-11-21T03:39:17;9.70;;;6.37;;
12474;SDS011;6302;42.624;23.334;2023-11-21T03:41:45;6.60;;;5.67;;
12474;SDS011;6302;42.624;23.334;2023-11-21T03:44:12;8.07;;;5.60;;
12474;SDS011;6302;42.624;23.334;2023-11-21T03:46:39;7.83;;;5.73;;
12474;SDS011;6302;42.624;23.334;2023-11-21T03:49:08;7.20;;;5.13;;
12474;SDS011;6302;42.624;23.334;2023-11-21T03:51:36;6.43;;;5.20;;
12474;SDS011;6302;42.624;23.334;2023-11-21T03:54:03;6.80;;;5.50;;
12474;SDS011;6302;42.624;23.334;2023-11-21T03:56:30;10.57;;;6.70;;
12474;SDS011;6302;42.624;23.334;2023-11-21T03:58:57;6.97;;;5.53;;
12474;SDS011;6302;42.624;23.334;2023-11-21T04:01:24;13.70;;;10.23;;
12474;SDS011;6302;42.624;23.334;2023-11-21T04:03:51;10.43;;;8.07;;
12474;SDS011;6302;42.624;23.334;2023-11-21T04:06:19;25.33;;;9.40;;
12474;SDS011;6302;42.624;23.334;2023-11-21T04:08:46;10.40;;;8.50;;
12474;SDS011;6302;42.624;23.334;2023-11-21T04:11:13;11.07;;;8.40;;
12474;SDS011;6302;42.624;23.334;2023-11-21T04:13:40;13.67;;;8.90;;
12474;SDS011;6302;42.624;23.334;2023-11-21T04:16:08;14.77;;;8.93;;
12474;SDS011;6302;42.624;23.334;2023-11-21T04:18:35;13.30;;;8.00;;
12474;SDS011;6302;42.624;23.334;2023-11-21T04:21:03;7.73;;;6.63;;
12474;SDS011;6302;42.624;23.334;2023-11-21T04:23:32;8.63;;;6.90;;
12474;SDS011;6302;42.624;23.334;2023-11-21T04:26:00;6.07;;;5.47;;
12474;SDS011;6302;42.624;23.334;2023-11-21T04:28:28;5.87;;;4.87;;
12474;SDS011;6302;42.624;23.334;2023-11-21T04:30:55;6.67;;;5.07;;
12474;SDS011;6302;42.624;23.334;2023-11-21T04:33:22;6.63;;;5.00;;
12474;SDS011;6302;42.624;23.334;2023-11-21T04:35:50;6.30;;;5.10;;
12474;SDS011;6302;42.624;23.334;2023-11-21T04:38:17;7.33;;;5.73;;
12474;SDS011;6302;42.624;23.334;2023-11-21T04:40:45;9.43;;;6.53;;
12474;SDS011;6302;42.624;23.334;2023-11-21T04:43:12;12.17;;;8.00;;
12474;SDS011;6302;42.624;23.334;2023-11-21T04:45:39;14.00;;;7.80;;
12474;SDS011;6302;42.624;23.334;2023-11-21T04:48:06;12.27;;;7.33;;
12474;SDS011;6302;42.624;23.334;2023-11-21T04:50:33;5.77;;;4.97;;
12474;SDS011;6302;42.624;23.334;2023-11-21T04:53:00;8.87;;;5.20;;
12474;SDS011;6302;42.624;23.334;2023-11-21T04:55:27;6.07;;;4.53;;
12474;SDS011;6302;42.624;23.334;2023-11-21T04:57:55;6.07;;;5.47;;
12474;SDS011;6302;42.624;23.334;2023-11-21T05:00:22;5.63;;;5.00;;
12474;SDS011;6302;42.624;23.334;2023-11-21T05:02:49;4.63;;;4.23;;
12474;SDS011;6302;42.624;23.334;2023-11-21T05:05:15;4.67;;;4.03;;
12474;SDS011;6302;42.624;23.334;2023-11-21T05:07:42;5.23;;;4.00;;
12474;SDS011;6302;42.624;23.334;2023-11-21T05:10:09;5.07;;;4.50;;
12474;SDS011;6302;42.624;23.334;2023-11-21T05:12:37;9.73;;;8.03;;
12474;SDS011;6302;42.624;23.334;2023-11-21T05:15:06;8.47;;;6.90;;
12474;SDS011;6302;42.624;23.334;2023-11-21T05:17:35;8.10;;;6.80;;
12474;SDS011;6302;42.624;23.334;2023-11-21T05:20:04;14.70;;;9.17;;
12474;SDS011;6302;42.624;23.334;2023-11-21T05:22:33;9.43;;;8.40;;
12474;SDS011;6302;42.624;23.334;2023-11-21T05:25:00;7.43;;;6.57;;
12474;SDS011;6302;42.624;23.334;2023-11-21T05:27:28;9.43;;;6.43;;
12474;SDS011;6302;42.624;23.334;2023-11-21T05:29:54;10.07;;;6.03;;
12474;SDS011;6302;42.624;23.334;2023-11-21T05:32:23;9.83;;;5.87;;
12474;SDS011;6302;42.624;23.334;2023-11-21T05:34:50;8.53;;;6.07;;
12474;SDS011;6302;42.624;23.334;2023-11-21T05:37:16;7.40;;;6.60;;
12474;SDS011;6302;42.624;23.334;2023-11-21T05:39:43;7.20;;;6.20;;
12474;SDS011;6302;42.624;23.334;2023-11-21T05:42:10;12.67;;;9.13;;
12474;SDS011;6302;42.624;23.334;2023-11-21T05:44:40;12.33;;;8.53;;
12474;SDS011;6302;42.624;23.334;2023-11-21T05:47:09;10.73;;;9.63;;
12474;SDS011;6302;42.624;23.334;2023-11-21T05:49:37;10.53;;;9.43;;
12474;SDS011;6302;42.624;23.334;2023-11-21T05:52:04;15.00;;;8.80;;
12474;SDS011;6302;42.624;23.334;2023-11-21T05:54:31;8.80;;;7.90;;
12474;SDS011;6302;42.624;23.334;2023-11-21T05:56:58;10.37;;;8.07;;
12474;SDS011;6302;42.624;23.334;2023-11-21T05:59:25;10.47;;;8.60;;
12474;SDS011;6302;42.624;23.334;2023-11-21T06:01:52;15.50;;;11.27;;
12474;SDS011;6302;42.624;23.334;2023-11-21T06:04:19;14.80;;;10.60;;
12474;SDS011;6302;42.624;23.334;2023-11-21T06:06:50;11.00;;;7.47;;
12474;SDS011;6302;42.624;23.334;2023-11-21T06:09:17;14.37;;;11.50;;
12474;SDS011;6302;42.624;23.334;2023-11-21T06:11:44;24.13;;;16.43;;
12474;SDS011;6302;42.624;23.334;2023-11-21T06:14:11;14.83;;;12.07;;
12474;SDS011;6302;42.624;23.334;2023-11-21T06:16:38;12.73;;;10.60;;
12474;SDS011;6302;42.624;23.334;2023-11-21T06:19:06;12.50;;;9.83;;
12474;SDS011;6302;42.624;23.334;2023-11-21T06:21:32;18.77;;;13.63;;
12474;SDS011;6302;42.624;23.334;2023-11-21T06:24:01;28.03;;;16.03;;
12474;SDS011;6302;42.624;23.334;2023-11-21T06:26:28;18.67;;;12.93;;
12474;SDS011;6302;42.624;23.334;2023-11-21T06:28:56;22.27;;;13.57;;
12474;SDS011;6302;42.624;23.334;2023-11-21T06:31:23;23.27;;;15.57;;
12474;SDS011;6302;42.624;23.334;2023-11-21T06:33:50;23.57;;;14.30;;
12474;SDS011;6302;42.624;23.334;2023-11-21T06:36:17;25.00;;;14.73;;
12474;SDS011;6302;42.624;23.334;2023-11-21T06:38:44;26.93;;;15.50;;
12474;SDS011;6302;42.624;23.334;2023-11-21T06:41:13;20.30;;;13.53;;
12474;SDS011;6302;42.624;23.334;2023-11-21T06:43:41;20.37;;;14.67;;
12474;SDS011;6302;42.624;23.334;2023-11-21T06:46:11;22.53;;;15.60;;
12474;SDS011;6302;42.624;23.334;2023-11-21T06:48:39;21.60;;;15.77;;
12474;SDS011;6302;42.624;23.334;2023-11-21T06:51:08;26.97;;;18.20;;
12474;SDS011;6302;42.624;23.334;2023-11-21T06:53:37;29.20;;;17.43;;
12474;SDS011;6302;42.624;23.334;2023-11-21T06:56:04;26.17;;;17.90;;
12474;SDS011;6302;42.624;23.334;2023-11-21T06:58:34;24.27;;;18.90;;
12474;SDS011;6302;42.624;23.334;2023-11-21T07:01:00;22.47;;;18.87;;
12474;SDS011;6302;42.624;23.334;2023-11-21T07:03:27;27.73;;;18.73;;
12474;SDS011;6302;42.624;23.334;2023-11-21T07:05:54;26.83;;;20.60;;
12474;SDS011;6302;42.624;23.334;2023-11-21T07:08:21;27.03;;;18.70;;
12474;SDS011;6302;42.624;23.334;2023-11-21T07:10:47;27.33;;;19.40;;
12474;SDS011;6302;42.624;23.334;2023-11-21T07:13:14;32.63;;;20.53;;
12474;SDS011;6302;42.624;23.334;2023-11-21T07:15:42;26.83;;;20.07;;
12474;SDS011;6302;42.624;23.334;2023-11-21T07:18:09;34.23;;;21.03;;
12474;SDS011;6302;42.624;23.334;2023-11-21T07:20:36;27.97;;;19.87;;
12474;SDS011;6302;42.624;23.334;2023-11-21T07:23:03;30.00;;;20.93;;
12474;SDS011;6302;42.624;23.334;2023-11-21T07:25:30;28.43;;;20.20;;
12474;SDS011;6302;42.624;23.334;2023-11-21T07:27:58;29.00;;;22.37;;
12474;SDS011;6302;42.624;23.334;2023-11-21T07:30:25;31.97;;;23.83;;
12474;SDS011;6302;42.624;23.334;2023-11-21T07:32:54;34.27;;;24.27;;
12474;SDS011;6302;42.624;23.334;2023-11-21T07:35:20;35.40;;;22.13;;
12474;SDS011;6302;42.624;23.334;2023-11-21T07:37:47;31.17;;;24.17;;
12474;SDS011;6302;42.624;23.334;2023-11-21T07:40:15;31.00;;;23.63;;
12474;SDS011;6302;42.624;23.334;2023-11-21T07:42:42;37.90;;;24.23;;
12474;SDS011;6302;42.624;23.334;2023-11-21T07:45:09;31.50;;;22.37;;
12474;SDS011;6302;42.624;23.334;2023-11-21T07:47:36;28.77;;;22.00;;
12474;SDS011;6302;42.624;23.334;2023-11-21T07:50:06;32.67;;;23.70;;
12474;SDS011;6302;42.624;23.334;2023-11-21T07:52:33;29.10;;;21.40;;
12474;SDS011;6302;42.624;23.334;2023-11-21T07:55:00;30.87;;;22.30;;
12474;SDS011;6302;42.624;23.334;2023-11-21T07:57:27;28.23;;;21.73;;
12474;SDS011;6302;42.624;23.334;2023-11-21T07:59:54;28.67;;;21.33;;
12474;SDS011;6302;42.624;23.334;2023-11-21T08:02:21;36.70;;;20.57;;
12474;SDS011;6302;42.624;23.334;2023-11-21T08:04:48;29.40;;;20.53;;
12474;SDS011;6302;42.624;23.334;2023-11-21T08:07:16;32.80;;;21.83;;
12474;SDS011;6302;42.624;23.334;2023-11-21T08:09:43;26.57;;;19.77;;
12474;SDS011;6302;42.624;23.334;2023-11-21T08:12:11;27.23;;;22.00;;
12474;SDS011;6302;42.624;23.334;2023-11-21T08:14:39;25.37;;;20.73;;
12474;SDS011;6302;42.624;23.334;2023-11-21T08:17:06;33.30;;;20.63;;
12474;SDS011;6302;42.624;23.334;2023-11-21T08:19:35;29.40;;;22.60;;
12474;SDS011;6302;42.624;23.334;2023-11-21T08:22:02;26.23;;;20.57;;
12474;SDS011;6302;42.624;23.334;2023-11-21T08:24:30;28.67;;;20.03;;
12474;SDS011;6302;42.624;23.334;2023-11-21T08:26:57;26.20;;;20.80;;
12474;SDS011;6302;42.624;23.334;2023-11-21T08:29:24;31.17;;;20.60;;
12474;SDS011;6302;42.624;23.334;2023-11-21T08:31:51;35.03;;;23.13;;
12474;SDS011;6302;42.624;23.334;2023-11-21T08:34:18;29.67;;;21.40;;
12474;SDS011;6302;42.624;23.334;2023-11-21T08:36:45;21.20;;;17.00;;
12474;SDS011;6302;42.624;23.334;2023-11-21T08:39:12;19.03;;;15.20;;
12474;SDS011;6302;42.624;23.334;2023-11-21T08:41:43;20.80;;;16.17;;
12474;SDS011;6302;42.624;23.334;2023-11-21T08:44:09;17.87;;;14.77;;
12474;SDS011;6302;42.624;23.334;2023-11-21T08:46:36;21.20;;;14.73;;
12474;SDS011;6302;42.624;23.334;2023-11-21T08:49:05;18.53;;;14.87;;
12474;SDS011;6302;42.624;23.334;2023-11-21T08:51:31;23.33;;;16.30;;
12474;SDS011;6302;42.624;23.334;2023-11-21T08:53:58;19.20;;;16.03;;
12474;SDS011;6302;42.624;23.334;2023-11-21T08:56:29;24.27;;;16.30;;
12474;SDS011;6302;42.624;23.334;2023-11-21T08:58:57;24.47;;;17.63;;
12474;SDS011;6302;42.624;23.334;2023-11-21T09:01:25;26.13;;;17.30;;
12474;SDS011;6302;42.624;23.334;2023-11-21T09:03:52;32.13;;;20.43;;
12474;SDS011;6302;42.624;23.334;2023-11-21T09:06:19;26.93;;;18.87;;
12474;SDS011;6302;42.624;23.334;2023-11-21T09:08:46;35.90;;;20.33;;
12474;SDS011;6302;42.624;23.334;2023-11-21T09:11:13;27.00;;;18.73;;
12474;SDS011;6302;42.624;23.334;2023-11-21T09:13:39;28.33;;;19.23;;
12474;SDS011;6302;42.624;23.334;2023-11-21T09:16:08;22.23;;;16.07;;
12474;SDS011;6302;42.624;23.334;2023-11-21T09:18:35;26.10;;;16.90;;
12474;SDS011;6302;42.624;23.334;2023-11-21T09:21:02;26.20;;;16.80;;
12474;SDS011;6302;42.624;23.334;2023-11-21T09:23:30;24.40;;;16.50;;
12474;SDS011;6302;42.624;23.334;2023-11-21T09:25:57;22.73;;;17.10;;
12474;SDS011;6302;42.624;23.334;2023-11-21T09:28:25;27.60;;;18.07;;
12474;SDS011;6302;42.624;23.334;2023-11-21T09:30:52;30.60;;;18.27;;
12474;SDS011;6302;42.624;23.334;2023-11-21T09:33:22;28.17;;;19.17;;
12474;SDS011;6302;42.624;23.334;2023-11-21T09:35:50;24.70;;;17.47;;
12474;SDS011;6302;42.624;23.334;2023-11-21T09:38:17;28.63;;;18.47;;
12474;SDS011;6302;42.624;23.334;2023-11-21T09:40:44;28.40;;;17.63;;
12474;SDS011;6302;42.624;23.334;2023-11-21T09:43:14;24.00;;;17.13;;
12474;SDS011;6302;42.624;23.334;2023-11-21T09:45:45;24.43;;;16.97;;
12474;SDS011;6302;42.624;23.334;2023-11-21T09:48:13;23.53;;;17.07;;
12474;SDS011;6302;42.624;23.334;2023-11-21T09:50:43;25.87;;;15.20;;
12474;SDS011;6302;42.624;23.334;2023-11-21T09:53:12;16.17;;;13.77;;
12474;SDS011;6302;42.624;23.334;2023-11-21T09:55:43;20.80;;;13.00;;
12474;SDS011;6302;42.624;23.334;2023-11-21T09:58:13;19.10;;;13.63;;
12474;SDS011;6302;42.624;23.334;2023-11-21T10:00:41;16.13;;;12.70;;
12474;SDS011;6302;42.624;23.334;2023-11-21T10:03:08;19.47;;;14.67;;
12474;SDS011;6302;42.624;23.334;2023-11-21T10:05:35;19.13;;;13.37;;
12474;SDS011;6302;42.624;23.334;2023-11-21T10:08:06;19.50;;;14.33;;
12474;SDS011;6302;42.624;23.334;2023-11-21T10:10:35;18.70;;;14.07;;
12474;SDS011;6302;42.624;23.334;2023-11-21T10:13:03;21.77;;;15.90;;
12474;SDS011;6302;42.624;23.334;2023-11-21T10:15:33;24.63;;;15.97;;
12474;SDS011;6302;42.624;23.334;2023-11-21T10:18:01;21.93;;;14.83;;
12474;SDS011;6302;42.624;23.334;2023-11-21T10:20:31;22.83;;;15.70;;
12474;SDS011;6302;42.624;23.334;2023-11-21T10:22:59;22.60;;;16.03;;
12474;SDS011;6302;42.624;23.334;2023-11-21T10:25:30;25.87;;;15.17;;
12474;SDS011;6302;42.624;23.334;2023-11-21T10:27:57;21.57;;;14.77;;
12474;SDS011;6302;42.624;23.334;2023-11-21T10:30:32;20.20;;;15.80;;
12474;SDS011;6302;42.624;23.334;2023-11-21T10:33:02;19.87;;;14.27;;
12474;SDS011;6302;42.624;23.334;2023-11-21T10:35:39;17.77;;;13.40;;
12474;SDS011;6302;42.624;23.334;2023-11-21T10:38:11;17.90;;;13.63;;
12474;SDS011;6302;42.624;23.334;2023-11-21T10:40:40;19.13;;;13.07;;
12474;SDS011;6302;42.624;23.334;2023-11-21T10:43:08;18.00;;;11.27;;
12474;SDS011;6302;42.624;23.334;2023-11-21T10:45:35;16.87;;;11.43;;
12474;SDS011;6302;42.624;23.334;2023-11-21T10:48:05;14.97;;;10.97;;
12474;SDS011;6302;42.624;23.334;2023-11-21T10:50:33;19.10;;;11.43;;
12474;SDS011;6302;42.624;23.334;2023-11-21T10:53:01;13.30;;;11.00;;
12474;SDS011;6302;42.624;23.334;2023-11-21T10:55:29;17.40;;;12.00;;
12474;SDS011;6302;42.624;23.334;2023-11-21T10:57:58;18.37;;;11.83;;
12474;SDS011;6302;42.624;23.334;2023-11-21T11:00:27;18.20;;;11.30;;
12474;SDS011;6302;42.624;23.334;2023-11-21T11:02:54;14.27;;;10.87;;
12474;SDS011;6302;42.624;23.334;2023-11-21T11:05:22;14.37;;;11.10;;
12474;SDS011;6302;42.624;23.334;2023-11-21T11:07:51;17.07;;;11.27;;
12474;SDS011;6302;42.624;23.334;2023-11-21T11:10:19;15.17;;;11.47;;
12474;SDS011;6302;42.624;23.334;2023-11-21T11:12:48;16.37;;;10.80;;
12474;SDS011;6302;42.624;23.334;2023-11-21T11:15:16;18.00;;;11.30;;
12474;SDS011;6302;42.624;23.334;2023-11-21T11:17:43;14.07;;;10.70;;
12474;SDS011;6302;42.624;23.334;2023-11-21T11:20:11;18.40;;;12.77;;
12474;SDS011;6302;42.624;23.334;2023-11-21T11:22:42;17.63;;;11.63;;
12474;SDS011;6302;42.624;23.334;2023-11-21T11:25:35;13.03;;;11.63;;
12474;SDS011;6302;42.624;23.334;2023-11-21T11:28:14;16.53;;;10.60;;
12474;SDS011;6302;42.624;23.334;2023-11-21T11:30:50;17.60;;;11.70;;
12474;SDS011;6302;42.624;23.334;2023-11-21T11:33:27;18.20;;;12.57;;
12474;SDS011;6302;42.624;23.334;2023-11-21T11:36:03;19.23;;;12.23;;
12474;SDS011;6302;42.624;23.334;2023-11-21T11:38:34;15.03;;;12.23;;
12474;SDS011;6302;42.624;23.334;2023-11-21T11:41:02;17.83;;;12.67;;
12474;SDS011;6302;42.624;23.334;2023-11-21T11:43:29;20.50;;;11.67;;
12474;SDS011;6302;42.624;23.334;2023-11-21T11:45:59;22.17;;;14.57;;
12474;SDS011;6302;42.624;23.334;2023-11-21T11:48:29;18.10;;;13.13;;
12474;SDS011;6302;42.624;23.334;2023-11-21T11:51:02;20.93;;;13.27;;
12474;SDS011;6302;42.624;23.334;2023-11-21T11:53:33;24.17;;;13.57;;
12474;SDS011;6302;42.624;23.334;2023-11-21T11:58:50;20.97;;;12.37;;
12474;SDS011;6302;42.624;23.334;2023-11-21T12:01:19;14.13;;;10.87;;
12474;SDS011;6302;42.624;23.334;2023-11-21T12:06:55;17.57;;;12.30;;
12474;SDS011;6302;42.624;23.334;2023-11-21T12:09:24;24.70;;;16.07;;
12474;SDS011;6302;42.624;23.334;2023-11-21T12:11:51;23.67;;;16.70;;
12474;SDS011;6302;42.624;23.334;2023-11-21T12:14:19;19.77;;;16.03;;
12474;SDS011;6302;42.624;23.334;2023-11-21T12:16:48;22.73;;;16.77;;
12474;SDS011;6302;42.624;23.334;2023-11-21T12:19:15;23.60;;;16.57;;
12474;SDS011;6302;42.624;23.334;2023-11-21T12:21:41;19.20;;;16.40;;
12474;SDS011;6302;42.624;23.334;2023-11-21T12:24:09;20.93;;;16.93;;
12474;SDS011;6302;42.624;23.334;2023-11-21T12:26:38;20.97;;;17.77;;
12474;SDS011;6302;42.624;23.334;2023-11-21T12:29:05;28.30;;;18.03;;
12474;SDS011;6302;42.624;23.334;2023-11-21T12:31:33;24.60;;;16.73;;
12474;SDS011;6302;42.624;23.334;2023-11-21T12:34:02;21.13;;;17.17;;
12474;SDS011;6302;42.624;23.334;2023-11-21T12:36:31;25.67;;;17.37;;
12474;SDS011;6302;42.624;23.334;2023-11-21T12:38:59;23.13;;;18.27;;
12474;SDS011;6302;42.624;23.334;2023-11-21T12:41:27;22.73;;;18.13;;
12474;SDS011;6302;42.624;23.334;2023-11-21T12:43:55;23.07;;;19.23;;
12474;SDS011;6302;42.624;23.334;2023-11-21T12:46:22;27.60;;;20.17;;
12474;SDS011;6302;42.624;23.334;2023-11-21T12:48:51;23.77;;;19.23;;
12474;SDS011;6302;42.624;23.334;2023-11-21T12:51:19;24.67;;;20.00;;
12474;SDS011;6302;42.624;23.334;2023-11-21T12:53:47;32.83;;;20.80;;
12474;SDS011;6302;42.624;23.334;2023-11-21T12:56:15;28.37;;;20.63;;
12474;SDS011;6302;42.624;23.334;2023-11-21T12:58:44;28.40;;;19.50;;
12474;SDS011;6302;42.624;23.334;2023-11-21T13:01:12;28.70;;;18.90;;
12474;SDS011;6302;42.624;23.334;2023-11-21T13:03:43;23.17;;;18.30;;
12474;SDS011;6302;42.624;23.334;2023-11-21T13:06:14;23.87;;;19.37;;
12474;SDS011;6302;42.624;23.334;2023-11-21T13:08:43;23.80;;;19.37;;
12474;SDS011;6302;42.624;23.334;2023-11-21T13:11:10;26.47;;;19.10;;
12474;SDS011;6302;42.624;23.334;2023-11-21T13:13:40;21.67;;;19.00;;
12474;SDS011;6302;42.624;23.334;2023-11-21T13:16:08;24.53;;;19.30;;
12474;SDS011;6302;42.624;23.334;2023-11-21T13:18:36;24.07;;;18.53;;
12474;SDS011;6302;42.624;23.334;2023-11-21T13:21:05;26.07;;;19.87;;
12474;SDS011;6302;42.624;23.334;2023-11-21T13:23:38;25.10;;;19.23;;
12474;SDS011;6302;42.624;23.334;2023-11-21T13:26:11;31.00;;;19.47;;
12474;SDS011;6302;42.624;23.334;2023-11-21T13:28:40;27.93;;;18.70;;
12474;SDS011;6302;42.624;23.334;2023-11-21T13:31:11;28.77;;;19.77;;
12474;SDS011;6302;42.624;23.334;2023-11-21T13:33:46;23.20;;;19.77;;
12474;SDS011;6302;42.624;23.334;2023-11-21T13:36:16;25.90;;;19.40;;
12474;SDS011;6302;42.624;23.334;2023-11-21T13:38:47;32.10;;;21.13;;
12474;SDS011;6302;42.624;23.334;2023-11-21T13:41:16;27.53;;;21.77;;
12474;SDS011;6302;42.624;23.334;2023-11-21T13:43:43;26.20;;;20.67;;
12474;SDS011;6302;42.624;23.334;2023-11-21T13:46:15;30.07;;;20.83;;
12474;SDS011;6302;42.624;23.334;2023-11-21T13:48:46;28.43;;;20.07;;
12474;SDS011;6302;42.624;23.334;2023-11-21T13:51:16;27.40;;;20.87;;
12474;SDS011;6302;42.624;23.334;2023-11-21T13:53:43;27.37;;;20.43;;
12474;SDS011;6302;42.624;23.334;2023-11-21T13:56:13;32.90;;;22.10;;
12474;SDS011;6302;42.624;23.334;2023-11-21T13:58:49;38.93;;;20.80;;
12474;SDS011;6302;42.624;23.334;2023-11-21T14:01:17;28.27;;;22.63;;
12474;SDS011;6302;42.624;23.334;2023-11-21T14:04:03;31.37;;;23.07;;
12474;SDS011;6302;42.624;23.334;2023-11-21T14:06:43;32.77;;;23.13;;
12474;SDS011;6302;42.624;23.334;2023-11-21T14:09:13;33.07;;;22.67;;
12474;SDS011;6302;42.624;23.334;2023-11-21T14:11:47;27.70;;;20.67;;
12474;SDS011;6302;42.624;23.334;2023-11-21T14:14:20;36.57;;;22.13;;
12474;SDS011;6302;42.624;23.334;2023-11-21T14:16:49;29.53;;;21.03;;
12474;SDS011;6302;42.624;23.334;2023-11-21T14:19:16;31.57;;;22.80;;
12474;SDS011;6302;42.624;23.334;2023-11-21T14:21:42;27.43;;;20.93;;
12474;SDS011;6302;42.624;23.334;2023-11-21T14:24:10;26.60;;;20.37;;
12474;SDS011;6302;42.624;23.334;2023-11-21T14:26:38;30.40;;;22.17;;
12474;SDS011;6302;42.624;23.334;2023-11-21T14:29:06;30.83;;;22.80;;
12474;SDS011;6302;42.624;23.334;2023-11-21T14:31:35;29.20;;;22.47;;
12474;SDS011;6302;42.624;23.334;2023-11-21T14:34:03;34.87;;;24.93;;
12474;SDS011;6302;42.624;23.334;2023-11-21T14:36:32;35.57;;;25.70;;
12474;SDS011;6302;42.624;23.334;2023-11-21T14:38:58;31.03;;;23.53;;
12474;SDS011;6302;42.624;23.334;2023-11-21T14:41:25;31.43;;;22.73;;